createdAt,value
2018-09-13T00:00:21.324Z,6.27
2018-09-13T00:02:48.870Z,7.00
2018-09-13T00:05:16.394Z,6.90
2018-09-13T00:07:44.050Z,6.47
2018-09-13T00:10:11.604Z,6.43
2018-09-13T00:12:39.143Z,6.60
2018-09-13T00:15:06.760Z,7.17
2018-09-13T00:17:34.355Z,7.47
2018-09-13T00:20:01.876Z,7.70
2018-09-13T00:22:29.358Z,8.27
2018-09-13T00:24:56.940Z,8.30
2018-09-13T00:27:24.455Z,7.97
2018-09-13T00:29:52.041Z,9.10
2018-09-13T00:32:19.611Z,8.53
2018-09-13T00:34:47.116Z,9.37
2018-09-13T00:37:14.690Z,9.80
2018-09-13T00:39:42.232Z,9.77
2018-09-13T00:42:09.744Z,9.50
2018-09-13T00:44:37.260Z,9.00
2018-09-13T00:47:09.347Z,10.23
2018-09-13T00:49:36.864Z,10.00
2018-09-13T00:52:04.373Z,11.17
2018-09-13T00:54:31.895Z,11.27
2018-09-13T00:56:59.422Z,10.70
2018-09-13T00:59:26.929Z,11.40
2018-09-13T01:01:54.450Z,10.53
2018-09-13T01:04:21.950Z,10.43
2018-09-13T01:06:49.460Z,11.17
2018-09-13T01:09:17.009Z,9.60
2018-09-13T01:11:44.516Z,8.97
2018-09-13T01:14:12.027Z,8.17
2018-09-13T01:16:39.571Z,8.90
2018-09-13T01:19:07.133Z,8.57
2018-09-13T01:21:34.643Z,8.00
2018-09-13T01:24:02.174Z,7.87
2018-09-13T01:26:29.680Z,6.87
2018-09-13T01:28:57.216Z,6.43
2018-09-13T01:31:24.834Z,7.03
2018-09-13T01:33:52.357Z,7.50
2018-09-13T01:36:19.972Z,6.13
2018-09-13T01:38:47.543Z,6.40
2018-09-13T01:41:15.061Z,6.37
2018-09-13T01:43:42.591Z,6.87
2018-09-13T01:46:10.153Z,6.23
2018-09-13T01:48:37.675Z,5.93
2018-09-13T01:51:05.437Z,5.43
2018-09-13T01:53:32.960Z,6.30
2018-09-13T01:56:00.452Z,6.20
2018-09-13T01:58:28.053Z,5.87
2018-09-13T02:00:55.635Z,6.00
2018-09-13T02:03:23.577Z,6.10
2018-09-13T02:05:51.254Z,5.47
2018-09-13T02:08:18.750Z,5.03
2018-09-13T02:10:46.233Z,5.40
2018-09-13T02:13:13.767Z,5.43
2018-09-13T02:15:41.269Z,5.47
2018-09-13T02:18:08.748Z,5.50
2018-09-13T02:20:36.264Z,4.93
2018-09-13T02:23:03.879Z,5.03
2018-09-13T02:25:31.381Z,4.47
2018-09-13T02:27:58.973Z,4.77
2018-09-13T02:30:26.471Z,5.53
2018-09-13T02:32:53.983Z,5.40
2018-09-13T02:35:21.587Z,4.53
2018-09-13T02:37:49.138Z,4.83
2018-09-13T02:40:16.641Z,4.60
2018-09-13T02:42:44.231Z,4.73
2018-09-13T02:45:11.759Z,5.23
2018-09-13T02:47:39.289Z,4.93
2018-09-13T02:50:06.861Z,4.70
2018-09-13T02:52:34.393Z,4.90
2018-09-13T02:55:01.882Z,4.97
2018-09-13T02:57:29.447Z,4.40
2018-09-13T02:59:56.971Z,4.97
2018-09-13T03:02:24.479Z,4.20
2018-09-13T03:04:52.063Z,5.07
2018-09-13T03:07:19.529Z,4.27
2018-09-13T03:09:47.049Z,4.27
2018-09-13T03:12:14.714Z,4.60
2018-09-13T03:14:42.217Z,3.83
2018-09-13T03:17:09.755Z,3.63
2018-09-13T03:19:37.302Z,3.37
2018-09-13T03:22:04.802Z,3.23
2018-09-13T03:24:32.289Z,3.00
2018-09-13T03:26:59.790Z,3.60
2018-09-13T03:29:27.393Z,2.83
2018-09-13T03:31:54.936Z,2.60
2018-09-13T03:34:22.486Z,2.67
2018-09-13T03:36:50.301Z,2.37
2018-09-13T03:39:17.792Z,2.93
2018-09-13T03:41:45.312Z,3.17
2018-09-13T03:44:12.823Z,2.43
2018-09-13T03:46:40.314Z,2.23
2018-09-13T03:49:07.837Z,1.87
2018-09-13T03:51:35.353Z,2.87
2018-09-13T03:54:02.869Z,1.97
2018-09-13T03:56:30.397Z,2.20
2018-09-13T03:58:58.043Z,2.17
2018-09-13T04:01:25.565Z,1.90
2018-09-13T04:03:53.180Z,2.70
2018-09-13T04:06:20.746Z,2.03
2018-09-13T04:08:48.317Z,2.20
2018-09-13T04:11:15.888Z,2.03
2018-09-13T04:13:43.451Z,2.40
2018-09-13T04:16:10.963Z,2.30
2018-09-13T04:18:38.543Z,2.50
2018-09-13T04:21:06.094Z,2.70
2018-09-13T04:23:33.708Z,2.80
2018-09-13T04:26:01.270Z,2.43
2018-09-13T04:28:28.842Z,3.17
2018-09-13T04:30:56.329Z,2.47
2018-09-13T04:33:23.846Z,3.20
2018-09-13T04:35:51.534Z,3.30
2018-09-13T04:38:19.026Z,2.93
2018-09-13T04:40:46.541Z,2.70
2018-09-13T04:43:14.142Z,3.30
2018-09-13T04:45:41.751Z,3.67
2018-09-13T04:48:09.350Z,2.60
2018-09-13T04:50:36.874Z,3.40
2018-09-13T04:53:04.796Z,3.47
2018-09-13T04:55:32.318Z,2.80
2018-09-13T04:58:00.670Z,2.83
2018-09-13T05:00:28.161Z,2.77
2018-09-13T05:02:55.671Z,3.00
2018-09-13T05:05:23.194Z,3.07
2018-09-13T05:07:50.697Z,3.03
2018-09-13T05:10:18.216Z,3.13
2018-09-13T05:12:45.758Z,2.80
2018-09-13T05:15:13.260Z,2.90
2018-09-13T05:17:40.817Z,2.93
2018-09-13T05:20:08.340Z,3.00
2018-09-13T05:22:35.858Z,2.83
2018-09-13T05:25:03.739Z,3.40
2018-09-13T05:27:31.451Z,2.73
2018-09-13T05:29:58.980Z,2.50
2018-09-13T05:32:26.549Z,3.07
2018-09-13T05:34:54.243Z,2.80
2018-09-13T05:37:21.774Z,3.17
2018-09-13T05:39:49.356Z,2.60
2018-09-13T05:42:16.896Z,2.60
2018-09-13T05:44:44.492Z,2.60
2018-09-13T05:47:12.032Z,2.27
2018-09-13T05:49:39.562Z,2.40
2018-09-13T05:52:07.086Z,2.40
2018-09-13T05:54:34.629Z,3.00
2018-09-13T05:57:02.193Z,2.67
2018-09-13T05:59:29.694Z,2.37
2018-09-13T06:01:57.227Z,2.53
2018-09-13T06:04:24.826Z,2.33
2018-09-13T06:06:52.324Z,1.93
2018-09-13T06:09:19.852Z,2.63
2018-09-13T06:11:47.382Z,2.30
2018-09-13T06:14:14.945Z,2.33
2018-09-13T06:16:42.518Z,2.50
2018-09-13T06:19:10.056Z,2.00
2018-09-13T06:21:37.618Z,2.23
2018-09-13T06:24:05.345Z,2.60
2018-09-13T06:26:32.864Z,2.63
2018-09-13T06:29:00.361Z,2.60
2018-09-13T06:31:27.968Z,2.37
2018-09-13T06:33:55.476Z,2.47
2018-09-13T06:36:22.973Z,2.80
2018-09-13T06:38:50.689Z,2.80
2018-09-13T06:41:18.206Z,2.10
2018-09-13T06:43:45.767Z,2.60
2018-09-13T06:46:13.338Z,2.23
2018-09-13T06:48:40.862Z,2.17
2018-09-13T06:51:08.425Z,2.20
2018-09-13T06:53:35.993Z,2.10
2018-09-13T06:56:03.493Z,2.13
2018-09-13T06:58:31.166Z,2.60
2018-09-13T07:00:58.809Z,2.50
2018-09-13T07:03:26.325Z,2.20
2018-09-13T07:05:53.891Z,2.10
2018-09-13T07:08:21.407Z,2.07
2018-09-13T07:10:49.022Z,2.23
2018-09-13T07:13:17.524Z,1.93
2018-09-13T07:15:45.065Z,2.63
2018-09-13T07:18:12.568Z,2.23
2018-09-13T07:20:40.091Z,2.40
2018-09-13T07:23:07.666Z,1.80
2018-09-13T07:25:35.165Z,2.33
2018-09-13T07:28:02.682Z,2.30
2018-09-13T07:30:30.199Z,2.70
2018-09-13T07:32:57.709Z,2.20
2018-09-13T07:35:25.207Z,1.87
2018-09-13T07:37:53.028Z,2.03
2018-09-13T07:40:20.538Z,2.17
2018-09-13T07:42:48.257Z,2.37
2018-09-13T07:45:15.743Z,2.03
2018-09-13T07:47:43.265Z,2.90
2018-09-13T07:50:10.788Z,2.27
2018-09-13T07:52:38.400Z,2.10
2018-09-13T07:55:06.084Z,1.90
2018-09-13T07:57:33.683Z,1.90
2018-09-13T08:00:01.235Z,2.60
2018-09-13T08:02:28.720Z,2.30
2018-09-13T08:04:56.257Z,2.37
2018-09-13T08:07:23.720Z,2.30
2018-09-13T08:09:51.380Z,2.30
2018-09-13T08:12:18.944Z,2.50
2018-09-13T08:14:46.468Z,2.33
2018-09-13T08:17:13.969Z,2.63
2018-09-13T08:19:41.470Z,2.67
2018-09-13T08:22:09.076Z,2.43
2018-09-13T08:24:36.593Z,1.90
2018-09-13T08:27:04.191Z,1.83
2018-09-13T08:29:31.763Z,1.87
2018-09-13T08:31:59.317Z,1.80
2018-09-13T08:34:26.849Z,1.83
2018-09-13T08:36:54.413Z,1.97
2018-09-13T08:39:21.969Z,1.60
2018-09-13T08:41:49.495Z,2.33
2018-09-13T08:44:17.027Z,1.93
2018-09-13T08:46:44.545Z,2.13
2018-09-13T08:49:12.043Z,1.80
2018-09-13T08:51:39.555Z,2.00
2018-09-13T08:54:07.119Z,1.60
2018-09-13T08:56:34.644Z,1.67
2018-09-13T08:59:02.198Z,1.50
2018-09-13T09:01:29.705Z,2.13
2018-09-13T09:03:57.214Z,1.50
2018-09-13T09:06:24.842Z,1.50
2018-09-13T09:08:52.341Z,1.40
2018-09-13T09:11:19.856Z,1.33
2018-09-13T09:13:47.399Z,1.30
2018-09-13T09:16:14.923Z,1.73
2018-09-13T09:18:42.559Z,1.50
2018-09-13T09:21:10.095Z,1.17
2018-09-13T09:23:37.641Z,1.77
2018-09-13T09:26:05.261Z,1.63
2018-09-13T09:28:32.859Z,1.37
2018-09-13T09:31:00.384Z,1.57
2018-09-13T09:33:27.908Z,1.30
2018-09-13T09:35:55.460Z,1.50
2018-09-13T09:38:22.973Z,1.97
2018-09-13T09:40:50.602Z,1.57
2018-09-13T09:43:18.118Z,1.50
2018-09-13T09:45:45.616Z,1.67
2018-09-13T09:48:13.152Z,1.60
2018-09-13T09:50:40.659Z,1.57
2018-09-13T09:53:14.778Z,1.77
2018-09-13T09:55:42.313Z,1.33
2018-09-13T09:58:09.850Z,1.87
2018-09-13T10:00:42.958Z,1.73
2018-09-13T10:03:19.168Z,1.50
2018-09-13T10:05:46.713Z,1.90
2018-09-13T10:08:14.324Z,1.70
2018-09-13T10:10:41.873Z,1.67
2018-09-13T10:13:09.549Z,1.60
2018-09-13T10:15:42.709Z,1.87
2018-09-13T10:18:15.950Z,1.53
2018-09-13T10:20:49.130Z,1.90
2018-09-13T10:23:22.370Z,1.50
2018-09-13T10:25:55.542Z,1.87
2018-09-13T10:28:28.842Z,1.80
2018-09-13T10:31:02.128Z,1.40
2018-09-13T10:33:35.364Z,1.80
2018-09-13T10:36:08.586Z,1.40
2018-09-13T10:38:41.864Z,1.40
2018-09-13T10:41:15.046Z,2.33
2018-09-13T10:43:48.099Z,1.63
2018-09-13T10:46:21.383Z,1.43
2018-09-13T10:50:56.168Z,1.63
2018-09-13T10:53:28.698Z,1.73
2018-09-13T10:55:56.299Z,1.87
2018-09-13T10:58:23.838Z,1.63
2018-09-13T11:00:51.369Z,1.63
2018-09-13T11:03:18.930Z,1.70
2018-09-13T11:05:46.581Z,1.53
2018-09-13T11:08:14.322Z,1.50
2018-09-13T11:10:42.092Z,1.87
2018-09-13T11:13:14.586Z,2.10
2018-09-13T11:15:42.166Z,1.77
2018-09-13T11:18:09.726Z,1.57
2018-09-13T11:20:37.358Z,1.77
2018-09-13T11:23:04.920Z,1.43
2018-09-13T11:25:32.480Z,1.63
2018-09-13T11:28:00.104Z,2.10
2018-09-13T11:30:27.707Z,1.83
2018-09-13T11:32:55.156Z,2.20
2018-09-13T11:35:22.708Z,2.13
2018-09-13T11:37:50.250Z,1.60
2018-09-13T11:40:17.929Z,2.00
2018-09-13T11:42:45.464Z,1.90
2018-09-13T11:45:13.086Z,1.67
2018-09-13T11:47:41.327Z,1.97
2018-09-13T11:50:08.984Z,1.60
2018-09-13T11:52:36.589Z,1.30
2018-09-13T11:55:04.254Z,1.47
2018-09-13T11:57:31.806Z,1.30
2018-09-13T11:59:59.383Z,1.30
2018-09-13T12:02:27.248Z,1.40
2018-09-13T12:04:54.781Z,1.10
2018-09-13T12:07:22.444Z,1.20
2018-09-13T12:09:49.992Z,1.20
2018-09-13T12:12:17.500Z,1.20
2018-09-13T12:14:45.091Z,1.17
2018-09-13T12:17:12.708Z,1.40
2018-09-13T12:19:40.234Z,1.40
2018-09-13T12:22:07.756Z,1.37
2018-09-13T12:24:35.315Z,1.63
2018-09-13T12:27:02.912Z,1.00
2018-09-13T12:29:30.468Z,1.13
2018-09-13T12:31:58.298Z,1.20
2018-09-13T12:34:25.893Z,1.20
2018-09-13T12:36:53.509Z,0.80
2018-09-13T12:39:21.027Z,1.00
2018-09-13T12:41:48.578Z,0.97
2018-09-13T12:44:16.124Z,0.70
2018-09-13T12:46:43.707Z,1.00
2018-09-13T12:49:11.812Z,0.70
2018-09-13T12:51:39.390Z,0.80
2018-09-13T12:54:06.943Z,1.20
2018-09-13T12:56:34.529Z,1.00
2018-09-13T12:59:02.111Z,0.70
2018-09-13T13:01:29.645Z,0.70
2018-09-13T13:03:57.152Z,0.63
2018-09-13T13:06:24.756Z,0.70
2018-09-13T13:08:52.319Z,0.80
2018-09-13T13:11:19.839Z,0.70
2018-09-13T13:13:47.445Z,0.70
2018-09-13T13:16:14.956Z,0.73
2018-09-13T13:18:42.444Z,0.60
2018-09-13T13:21:09.967Z,0.90
2018-09-13T13:23:37.482Z,1.00
2018-09-13T13:26:05.046Z,0.90
2018-09-13T13:28:32.588Z,1.10
2018-09-13T13:31:00.095Z,0.70
2018-09-13T13:33:27.615Z,0.90
2018-09-13T13:35:55.161Z,0.75
2018-09-13T13:38:22.763Z,0.80
2018-09-13T13:40:50.281Z,0.88
2018-09-13T13:43:17.951Z,1.02
2018-09-13T13:45:45.469Z,0.95
2018-09-13T13:48:13.045Z,1.35
2018-09-13T13:50:40.590Z,1.10
2018-09-13T13:53:08.101Z,1.05
2018-09-13T13:55:35.647Z,0.90
2018-09-13T13:58:03.273Z,0.95
2018-09-13T14:00:30.788Z,0.90
2018-09-13T14:02:58.297Z,0.80
2018-09-13T14:05:25.853Z,1.20
2018-09-13T14:07:53.374Z,1.50
2018-09-13T14:10:20.893Z,1.20
2018-09-13T14:12:48.514Z,1.10
2018-09-13T14:15:16.051Z,0.95
2018-09-13T14:17:43.563Z,0.88
2018-09-13T14:20:11.182Z,1.10
2018-09-13T14:22:38.727Z,1.10
2018-09-13T14:25:06.245Z,1.10
2018-09-13T14:27:33.818Z,1.20
2018-09-13T14:30:01.342Z,1.00
2018-09-13T14:32:28.869Z,1.15
2018-09-13T14:34:56.404Z,1.22
2018-09-13T14:37:24.334Z,1.30
2018-09-13T14:39:51.848Z,1.40
2018-09-13T14:42:19.396Z,1.65
2018-09-13T14:44:46.896Z,1.27
2018-09-13T14:47:14.402Z,1.67
2018-09-13T14:49:41.970Z,1.50
2018-09-13T14:52:09.492Z,1.35
2018-09-13T14:54:37.046Z,1.70
2018-09-13T14:57:04.794Z,1.40
2018-09-13T14:59:32.339Z,1.95
2018-09-13T15:01:59.859Z,1.32
2018-09-13T15:04:27.510Z,1.87
2018-09-13T15:06:55.429Z,1.70
2018-09-13T15:09:22.930Z,1.70
2018-09-13T15:11:50.492Z,2.00
2018-09-13T15:14:18.018Z,1.80
2018-09-13T15:16:45.564Z,1.45
2018-09-13T15:19:13.153Z,1.67
2018-09-13T15:21:40.739Z,1.40
2018-09-13T15:24:08.270Z,1.30
2018-09-13T15:26:35.842Z,1.20
2018-09-13T15:29:03.386Z,1.62
2018-09-13T15:31:30.897Z,1.10
2018-09-13T15:33:58.416Z,1.47
2018-09-13T15:36:25.972Z,1.12
2018-09-13T15:38:53.559Z,1.25
2018-09-13T15:41:21.124Z,1.00
2018-09-13T15:43:48.692Z,1.12
2018-09-13T15:46:16.304Z,0.95
2018-09-13T15:48:43.994Z,1.35
2018-09-13T15:51:11.546Z,1.25
2018-09-13T15:53:39.416Z,0.93
2018-09-13T15:56:07.154Z,1.10
2018-09-13T15:58:34.758Z,1.30
2018-09-13T16:01:02.549Z,1.00
2018-09-13T16:03:30.196Z,1.20
2018-09-13T16:05:57.695Z,1.20
2018-09-13T16:08:25.202Z,1.13
2018-09-13T16:10:52.778Z,1.07
2018-09-13T16:13:20.288Z,2.67
2018-09-13T16:15:47.876Z,1.07
2018-09-13T16:18:15.451Z,1.03
2018-09-13T16:20:43.473Z,1.20
2018-09-13T16:23:11.293Z,1.20
2018-09-13T16:25:38.862Z,1.03
2018-09-13T16:28:06.485Z,1.03
2018-09-13T16:30:33.994Z,1.10
2018-09-13T16:33:01.560Z,1.10
2018-09-13T16:35:29.417Z,2.93
2018-09-13T16:38:02.786Z,0.90
2018-09-13T16:40:35.876Z,1.00
2018-09-13T16:43:09.126Z,0.87
2018-09-13T16:45:36.650Z,0.83
2018-09-13T16:48:04.997Z,1.10
2018-09-13T16:50:32.598Z,0.77
2018-09-13T16:53:00.223Z,1.07
2018-09-13T16:55:27.706Z,0.87
2018-09-13T16:57:55.342Z,1.43
2018-09-13T17:00:24.348Z,0.77
2018-09-13T17:02:51.926Z,1.13
2018-09-13T17:05:19.473Z,0.70
2018-09-13T17:07:47.066Z,1.10
2018-09-13T17:10:14.676Z,0.90
2018-09-13T17:12:42.468Z,1.00
2018-09-13T17:15:10.002Z,0.90
2018-09-13T17:17:37.620Z,1.30
2018-09-13T17:20:05.272Z,0.70
2018-09-13T17:22:32.901Z,0.90
2018-09-13T17:25:00.538Z,0.57
2018-09-13T17:27:28.110Z,1.00
2018-09-13T17:29:55.665Z,1.03
2018-09-13T17:32:23.317Z,0.73
2018-09-13T17:34:51.002Z,1.10
2018-09-13T17:37:18.540Z,1.17
2018-09-13T17:39:46.063Z,0.93
2018-09-13T17:42:13.609Z,1.23
2018-09-13T17:44:41.179Z,0.93
2018-09-13T17:47:08.802Z,1.00
2018-09-13T17:49:36.526Z,0.97
2018-09-13T17:52:04.094Z,0.97
2018-09-13T17:54:31.672Z,0.80
2018-09-13T17:56:59.322Z,0.70
2018-09-13T17:59:26.994Z,1.10
2018-09-13T18:01:54.740Z,0.90
2018-09-13T18:04:22.340Z,0.80
2018-09-13T18:06:49.846Z,0.90
2018-09-13T18:09:17.437Z,1.07
2018-09-13T18:11:45.149Z,0.70
2018-09-13T18:14:12.710Z,0.70
2018-09-13T18:16:40.273Z,1.00
2018-09-13T18:19:07.836Z,1.20
2018-09-13T18:21:35.381Z,2.20
2018-09-13T18:24:03.013Z,1.17
2018-09-13T18:26:30.655Z,0.80
2018-09-13T18:28:58.156Z,1.33
2018-09-13T18:31:25.761Z,0.87
2018-09-13T18:33:53.313Z,1.00
2018-09-13T18:36:20.893Z,1.73
2018-09-13T18:38:48.515Z,1.37
2018-09-13T18:41:16.274Z,1.43
2018-09-13T18:43:43.793Z,1.20
2018-09-13T18:46:11.518Z,1.10
2018-09-13T18:48:39.120Z,1.20
2018-09-13T18:51:06.638Z,0.90
2018-09-13T18:53:34.193Z,1.33
2018-09-13T18:56:01.816Z,1.10
2018-09-13T18:58:29.543Z,1.20
2018-09-13T19:00:57.017Z,1.20
2018-09-13T19:03:24.563Z,1.10
2018-09-13T19:05:52.069Z,1.23
2018-09-13T19:08:19.586Z,1.43
2018-09-13T19:10:47.227Z,1.87
2018-09-13T19:13:14.713Z,1.57
2018-09-13T19:15:42.334Z,1.40
2018-09-13T19:18:09.820Z,1.43
2018-09-13T19:20:37.329Z,1.80
2018-09-13T19:23:04.865Z,1.70
2018-09-13T19:25:32.409Z,1.67
2018-09-13T19:27:59.964Z,1.97
2018-09-13T19:30:27.551Z,1.90
2018-09-13T19:32:55.155Z,1.40
2018-09-13T19:35:22.728Z,1.47
2018-09-13T19:37:50.250Z,1.90
2018-09-13T19:40:17.850Z,1.30
2018-09-13T19:42:46.035Z,1.37
2018-09-13T19:45:13.530Z,1.90
2018-09-13T19:47:41.080Z,1.47
2018-09-13T19:50:08.605Z,1.70
2018-09-13T19:52:36.149Z,1.47
2018-09-13T19:55:04.092Z,1.67
2018-09-13T19:57:31.754Z,1.80
2018-09-13T19:59:59.254Z,1.60
2018-09-13T20:02:26.830Z,2.00
2018-09-13T20:04:54.500Z,1.83
2018-09-13T20:07:22.082Z,1.97
2018-09-13T20:09:49.601Z,2.17
2018-09-13T20:12:17.315Z,2.00
2018-09-13T20:14:44.754Z,2.37
2018-09-13T20:17:12.256Z,2.77
2018-09-13T20:19:39.785Z,2.43
2018-09-13T20:22:10.325Z,2.30
2018-09-13T20:24:37.915Z,2.13
2018-09-13T20:27:05.486Z,2.53
2018-09-13T20:29:33.009Z,2.70
2018-09-13T20:32:00.536Z,2.83
2018-09-13T20:34:28.095Z,2.43
2018-09-13T20:36:55.594Z,2.80
2018-09-13T20:39:23.129Z,2.40
2018-09-13T20:41:50.687Z,3.20
2018-09-13T20:44:18.184Z,2.97
2018-09-13T20:46:45.714Z,2.53
2018-09-13T20:49:13.221Z,2.60
2018-09-13T20:51:40.720Z,2.43
2018-09-13T20:54:08.238Z,2.73
2018-09-13T20:56:35.772Z,3.00
2018-09-13T20:59:03.344Z,2.23
2018-09-13T21:01:30.838Z,2.77
2018-09-13T21:03:58.390Z,2.33
2018-09-13T21:06:25.924Z,3.07
2018-09-13T21:08:53.420Z,2.50
2018-09-13T21:11:20.992Z,2.90
2018-09-13T21:13:48.526Z,2.53
2018-09-13T21:16:16.104Z,2.40
2018-09-13T21:18:43.632Z,2.17
2018-09-13T21:21:11.175Z,2.10
2018-09-13T21:23:38.747Z,2.63
2018-09-13T21:26:06.360Z,2.53
2018-09-13T21:28:33.878Z,3.13
2018-09-13T21:31:01.398Z,2.47
2018-09-13T21:33:28.928Z,2.70
2018-09-13T21:35:56.437Z,3.07
2018-09-13T21:38:23.946Z,2.87
2018-09-13T21:40:51.512Z,2.23
2018-09-13T21:43:19.050Z,2.67
2018-09-13T21:45:46.552Z,2.87
2018-09-13T21:48:14.088Z,2.70
2018-09-13T21:50:41.748Z,3.33
2018-09-13T21:53:09.258Z,2.57
2018-09-13T21:55:36.800Z,3.30
2018-09-13T21:58:04.339Z,2.80
2018-09-13T22:00:33.040Z,2.93
2018-09-13T22:03:00.578Z,2.70
2018-09-13T22:05:28.090Z,2.83
2018-09-13T22:07:55.602Z,2.53
2018-09-13T22:10:23.164Z,2.90
2018-09-13T22:12:50.660Z,3.17
2018-09-13T22:15:18.180Z,2.50
2018-09-13T22:17:45.767Z,2.70
2018-09-13T22:20:13.294Z,2.60
2018-09-13T22:22:40.833Z,2.57
2018-09-13T22:25:08.562Z,2.87
2018-09-13T22:27:36.059Z,3.00
2018-09-13T22:30:03.775Z,2.40
2018-09-13T22:32:31.303Z,2.80
2018-09-13T22:34:58.885Z,2.63
2018-09-13T22:37:26.409Z,2.27
2018-09-13T22:39:53.935Z,2.97
2018-09-13T22:42:21.441Z,2.87
2018-09-13T22:44:49.020Z,3.37
2018-09-13T22:47:16.554Z,2.60
2018-09-13T22:49:44.091Z,2.40
2018-09-13T22:52:11.593Z,2.10
2018-09-13T22:54:39.159Z,3.43
2018-09-13T22:57:07.120Z,2.70
2018-09-13T22:59:34.650Z,2.43
2018-09-13T23:02:02.203Z,2.33
2018-09-13T23:04:29.719Z,2.33
2018-09-13T23:06:57.236Z,2.83
2018-09-13T23:09:24.741Z,2.93
2018-09-13T23:11:52.292Z,2.57
2018-09-13T23:14:19.843Z,2.97
2018-09-13T23:16:49.580Z,3.27
2018-09-13T23:19:14.926Z,2.87
2018-09-13T23:21:42.448Z,3.13
2018-09-13T23:24:09.961Z,2.77
2018-09-13T23:26:37.517Z,2.60
2018-09-13T23:29:05.329Z,3.13
2018-09-13T23:31:32.861Z,2.43
2018-09-13T23:34:00.385Z,2.40
2018-09-13T23:36:27.961Z,3.00
2018-09-13T23:38:55.482Z,2.30
2018-09-13T23:41:23.003Z,2.80
2018-09-13T23:43:50.528Z,2.90
2018-09-13T23:46:18.091Z,3.00
2018-09-13T23:48:45.643Z,2.60
2018-09-13T23:51:13.161Z,2.57
2018-09-13T23:53:40.667Z,2.37
2018-09-13T23:56:08.257Z,2.47
2018-09-13T23:58:35.787Z,2.80
